createdAt,value
2023-04-24T00:01:13.976Z,56.82
2023-04-24T00:03:42.297Z,56.61
2023-04-24T00:06:10.538Z,56.42
2023-04-24T00:08:38.643Z,56.53
2023-04-24T00:11:06.639Z,56.08
2023-04-24T00:13:36.081Z,56.46
2023-04-24T00:16:04.208Z,56.42
2023-04-24T00:18:32.131Z,56.21
2023-04-24T00:21:00.443Z,56.47
2023-04-24T00:23:28.487Z,56.42
2023-04-24T00:25:56.454Z,56.14
2023-04-24T00:28:24.457Z,56.41
2023-04-24T00:30:53.970Z,56.63
2023-04-24T00:33:22.209Z,56.55
2023-04-24T00:35:50.136Z,56.31
2023-04-24T00:38:18.076Z,56.38
2023-04-24T00:40:46.089Z,56.58
2023-04-24T00:43:14.182Z,56.57
2023-04-24T00:45:42.097Z,56.23
2023-04-24T00:48:11.477Z,56.29
2023-04-24T00:50:40.032Z,56.24
2023-04-24T00:53:08.241Z,56.63
2023-04-24T00:55:38.354Z,56.41
2023-04-24T00:58:06.769Z,56.49
2023-04-24T01:00:34.677Z,56.12
2023-04-24T01:03:03.193Z,56.56
2023-04-24T01:05:32.724Z,56.22
2023-04-24T01:08:00.908Z,56.21
2023-04-24T01:10:29.052Z,56.34
2023-04-24T01:12:57.016Z,56.34
2023-04-24T01:15:24.927Z,56.46
2023-04-24T01:17:52.987Z,56.47
2023-04-24T01:20:22.887Z,56.38
2023-04-24T01:22:52.272Z,56.31
2023-04-24T01:25:20.265Z,56.46
2023-04-24T01:27:48.344Z,56.53
2023-04-24T01:30:16.592Z,56.71
2023-04-24T01:32:45.918Z,56.46
2023-04-24T01:35:13.876Z,56.61
2023-04-24T01:37:41.975Z,56.55
2023-04-24T01:40:11.885Z,56.65
2023-04-24T01:42:39.992Z,56.11
2023-04-24T01:45:09.077Z,56.47
2023-04-24T01:47:37.245Z,56.33
2023-04-24T01:50:05.825Z,56.12
2023-04-24T01:52:34.411Z,56.23
2023-04-24T01:55:02.468Z,56.06
2023-04-24T01:57:32.500Z,55.98
2023-04-24T02:00:00.588Z,56.18
2023-04-24T02:02:31.068Z,55.90
2023-04-24T02:04:59.501Z,56.28
2023-04-24T02:07:27.544Z,56.28
2023-04-24T02:09:56.469Z,56.17
2023-04-24T02:12:24.758Z,56.05
2023-04-24T02:14:54.616Z,56.14
2023-04-24T02:17:22.742Z,56.46
2023-04-24T02:19:50.968Z,56.04
2023-04-24T02:22:18.926Z,56.29
2023-04-24T02:24:47.265Z,55.99
2023-04-24T02:27:17.194Z,55.98
2023-04-24T02:29:46.010Z,56.10
2023-04-24T02:32:16.718Z,56.05
2023-04-24T02:34:45.095Z,56.25
2023-04-24T02:37:14.094Z,56.38
2023-04-24T02:39:42.442Z,56.03
2023-04-24T02:42:10.863Z,56.16
2023-04-24T02:44:38.858Z,56.02
2023-04-24T02:47:06.785Z,56.00
2023-04-24T02:49:36.143Z,56.16
2023-04-24T02:52:04.169Z,56.19
2023-04-24T02:54:32.220Z,55.57
2023-04-24T02:57:01.737Z,55.61
2023-04-24T02:59:29.969Z,55.88
2023-04-24T03:01:59.124Z,56.16
2023-04-24T03:04:27.282Z,56.04
2023-04-24T03:06:57.375Z,56.27
2023-04-24T03:09:25.555Z,56.29
2023-04-24T03:11:53.489Z,55.84
2023-04-24T03:14:21.508Z,55.98
2023-04-24T03:16:49.966Z,56.35
2023-04-24T03:19:18.028Z,56.09
2023-04-24T03:22:01.107Z,56.13
2023-04-24T03:24:29.499Z,56.16
2023-04-24T03:26:58.230Z,56.42
2023-04-24T03:29:54.916Z,56.46
2023-04-24T03:32:24.339Z,56.47
2023-04-24T03:34:53.670Z,56.36
2023-04-24T03:37:23.630Z,56.53
2023-04-24T03:40:02.287Z,56.28
2023-04-24T03:42:30.763Z,56.25
2023-04-24T03:44:58.697Z,56.37
2023-04-24T03:47:32.175Z,56.56
2023-04-24T03:50:03.662Z,56.49
2023-04-24T03:52:34.038Z,56.40
2023-04-24T03:55:02.371Z,56.16
2023-04-24T03:57:32.452Z,56.28
2023-04-24T04:00:10.787Z,56.25
2023-04-24T04:02:42.767Z,56.26
2023-04-24T04:05:12.320Z,56.31
2023-04-24T04:07:41.750Z,56.43
2023-04-24T04:10:10.337Z,56.50
2023-04-24T04:12:39.085Z,56.54
2023-04-24T04:15:08.184Z,56.78
2023-04-24T04:17:36.578Z,57.14
2023-04-24T04:20:10.966Z,57.19
2023-04-24T04:22:44.299Z,57.21
2023-04-24T04:25:20.377Z,57.43
2023-04-24T04:27:48.789Z,57.06
2023-04-24T04:30:16.899Z,57.36
2023-04-24T04:32:57.741Z,57.07
2023-04-24T04:35:26.955Z,57.20
2023-04-24T04:37:57.082Z,57.38
2023-04-24T04:41:03.976Z,57.53
2023-04-24T04:43:35.213Z,57.47
2023-04-24T04:46:04.488Z,57.20
2023-04-24T04:48:58.721Z,57.61
2023-04-24T04:51:27.334Z,57.40
2023-04-24T04:53:56.717Z,57.28
2023-04-24T04:56:25.127Z,57.29
2023-04-24T04:58:53.120Z,57.37
2023-04-24T05:01:21.325Z,57.46
2023-04-24T05:03:51.313Z,57.47
2023-04-24T05:06:19.434Z,57.42
2023-04-24T05:08:48.172Z,57.20
2023-04-24T05:11:28.637Z,57.25
2023-04-24T05:13:58.433Z,57.22
2023-04-24T05:16:34.804Z,57.59
2023-04-24T05:19:03.171Z,57.62
2023-04-24T05:21:35.984Z,57.76
2023-04-24T05:24:04.326Z,57.45
2023-04-24T05:27:03.298Z,57.73
2023-04-24T05:29:36.732Z,57.94
2023-04-24T05:32:06.350Z,57.68
2023-04-24T05:34:34.314Z,57.57
2023-04-24T05:37:02.237Z,57.77
2023-04-24T05:39:30.241Z,58.22
2023-04-24T05:41:59.661Z,58.10
2023-04-24T05:44:29.164Z,57.91
2023-04-24T05:46:57.808Z,58.38
2023-04-24T05:49:26.330Z,58.26
2023-04-24T05:51:54.658Z,58.23
2023-04-24T05:54:23.496Z,58.53
2023-04-24T05:56:51.442Z,58.30
2023-04-24T05:59:30.935Z,58.20
2023-04-24T06:02:00.348Z,58.64
2023-04-24T06:04:28.689Z,58.33
2023-04-24T06:06:57.430Z,58.63
2023-04-24T06:09:26.237Z,58.94
2023-04-24T06:11:54.514Z,58.48
2023-04-24T06:14:26.501Z,58.60
2023-04-24T06:17:15.799Z,58.89
2023-04-24T06:19:44.175Z,58.54
2023-04-24T06:22:12.436Z,58.77
2023-04-24T06:24:42.157Z,59.09
2023-04-24T06:27:10.103Z,59.15
2023-04-24T06:29:38.466Z,58.92
2023-04-24T06:32:06.543Z,58.89
2023-04-24T06:34:36.579Z,59.07
2023-04-24T06:37:04.592Z,59.30
2023-04-24T06:39:32.524Z,58.72
2023-04-24T06:42:01.565Z,58.71
2023-04-24T06:44:29.733Z,58.97
2023-04-24T06:46:58.341Z,59.00
2023-04-24T06:49:26.291Z,58.83
2023-04-24T06:51:55.830Z,58.93
2023-04-24T06:54:23.803Z,58.86
2023-04-24T06:56:53.360Z,58.85
2023-04-24T06:59:21.762Z,58.99
2023-04-24T07:01:49.686Z,58.94
2023-04-24T07:04:17.985Z,58.52
2023-04-24T07:06:46.895Z,59.16
2023-04-24T07:09:17.158Z,58.97
2023-04-24T07:11:45.745Z,58.96
2023-04-24T07:14:13.760Z,59.28
2023-04-24T07:16:42.740Z,59.19
2023-04-24T07:19:12.016Z,59.43
2023-04-24T07:21:40.318Z,59.15
2023-04-24T07:24:10.371Z,59.46
2023-04-24T07:26:39.843Z,59.84
2023-04-24T07:29:07.777Z,59.67
2023-04-24T07:31:36.157Z,59.54
2023-04-24T07:34:04.191Z,59.74
2023-04-24T07:36:33.403Z,59.67
2023-04-24T07:39:01.403Z,59.90
2023-04-24T07:41:29.874Z,59.50
2023-04-24T07:43:59.446Z,59.31
2023-04-24T07:46:30.947Z,59.24
2023-04-24T07:49:13.695Z,58.82
2023-04-24T07:51:42.617Z,58.60
2023-04-24T07:54:10.986Z,58.33
2023-04-24T07:56:40.466Z,58.49
2023-04-24T07:59:10.817Z,58.76
2023-04-24T08:01:39.148Z,58.73
2023-04-24T08:04:07.666Z,58.96
2023-04-24T08:06:36.252Z,58.72
2023-04-24T08:09:04.290Z,58.84
2023-04-24T08:11:33.095Z,58.55
2023-04-24T08:14:01.078Z,58.49
2023-04-24T08:16:38.222Z,58.28
2023-04-24T08:19:06.325Z,57.97
2023-04-24T08:21:34.275Z,58.12
2023-04-24T08:24:06.195Z,57.87
2023-04-24T08:26:34.745Z,57.45
2023-04-24T08:29:02.847Z,57.33
2023-04-24T08:31:32.236Z,57.20
2023-04-24T08:34:01.001Z,57.19
2023-04-24T08:36:43.615Z,56.81
2023-04-24T08:39:16.634Z,56.81
2023-04-24T08:41:46.570Z,56.73
2023-04-24T08:44:16.697Z,56.35
2023-04-24T08:46:48.932Z,56.39
2023-04-24T08:49:17.640Z,56.18
2023-04-24T08:51:45.905Z,56.20
2023-04-24T08:54:14.986Z,55.91
2023-04-24T08:56:42.906Z,55.58
2023-04-24T08:59:11.340Z,55.58
2023-04-24T09:01:40.753Z,55.44
2023-04-24T09:04:12.165Z,55.19
2023-04-24T09:06:40.603Z,55.17
2023-04-24T09:09:08.512Z,55.29
2023-04-24T09:11:36.453Z,55.01
2023-04-24T09:14:04.420Z,55.27
2023-04-24T09:16:36.526Z,54.87
2023-04-24T09:19:05.098Z,54.79
2023-04-24T09:21:35.154Z,54.63
2023-04-24T09:24:03.920Z,54.23
2023-04-24T09:26:33.927Z,53.69
2023-04-24T09:29:02.156Z,53.20
2023-04-24T09:31:30.765Z,52.90
2023-04-24T09:34:01.787Z,52.89
2023-04-24T09:36:31.599Z,52.50
2023-04-24T09:39:01.624Z,52.80
2023-04-24T09:41:30.070Z,52.04
2023-04-24T09:43:58.222Z,51.89
2023-04-24T09:46:31.950Z,51.57
2023-04-24T09:49:00.016Z,51.21
2023-04-24T09:51:36.489Z,51.44
2023-04-24T09:54:07.120Z,51.65
2023-04-24T09:56:35.823Z,51.23
2023-04-24T09:59:09.104Z,51.13
2023-04-24T10:01:39.210Z,50.60
2023-04-24T10:04:14.564Z,50.82
2023-04-24T10:06:44.401Z,51.40
2023-04-24T10:09:14.851Z,51.00
2023-04-24T10:11:45.128Z,51.38
2023-04-24T10:14:14.860Z,51.05
2023-04-24T10:16:43.032Z,51.23
2023-04-24T10:19:11.893Z,50.06
2023-04-24T10:21:43.386Z,49.85
2023-04-24T10:24:11.681Z,49.44
2023-04-24T10:26:41.576Z,49.46
2023-04-24T10:29:11.004Z,49.57
2023-04-24T10:31:39.148Z,49.55
2023-04-24T10:34:07.478Z,49.69
2023-04-24T10:36:35.643Z,49.98
2023-04-24T10:39:07.923Z,50.45
2023-04-24T10:41:36.738Z,51.13
2023-04-24T10:44:11.423Z,52.33
2023-04-24T10:46:42.393Z,53.48
2023-04-24T10:49:10.775Z,54.76
2023-04-24T10:51:54.334Z,56.11
2023-04-24T10:54:29.130Z,56.25
2023-04-24T10:57:33.816Z,58.54
2023-04-24T11:00:21.878Z,59.11
2023-04-24T11:02:54.028Z,59.09
2023-04-24T11:05:22.746Z,60.57
2023-04-24T11:08:15.103Z,60.45
2023-04-24T11:10:45.645Z,60.54
2023-04-24T11:13:17.018Z,60.81
2023-04-24T11:15:46.500Z,61.45
2023-04-24T11:18:17.732Z,61.35
2023-04-24T11:20:47.064Z,61.84
2023-04-24T11:23:15.172Z,62.12
2023-04-24T11:25:45.145Z,62.19
2023-04-24T11:28:18.527Z,62.35
2023-04-24T11:30:48.264Z,62.53
2023-04-24T11:33:16.423Z,62.53
2023-04-24T11:35:44.449Z,63.22
2023-04-24T11:38:24.035Z,63.46
2023-04-24T11:40:54.065Z,63.43
2023-04-24T11:43:22.167Z,63.26
2023-04-24T11:45:51.953Z,63.44
2023-04-24T11:48:23.693Z,63.38
2023-04-24T11:50:52.659Z,63.22
2023-04-24T11:53:21.654Z,63.50
2023-04-24T11:55:51.088Z,63.55
2023-04-24T11:58:19.231Z,63.45
2023-04-24T12:00:47.711Z,63.31
2023-04-24T12:03:17.399Z,63.82
2023-04-24T12:05:46.908Z,63.84
2023-04-24T12:08:17.038Z,63.88
2023-04-24T12:10:46.951Z,63.44
2023-04-24T12:13:15.353Z,63.49
2023-04-24T12:15:43.621Z,63.70
2023-04-24T12:18:14.247Z,63.64
2023-04-24T12:20:43.770Z,63.58
2023-04-24T12:23:11.740Z,63.65
2023-04-24T12:25:41.927Z,63.94
2023-04-24T12:28:14.088Z,63.42
2023-04-24T12:30:45.651Z,63.27
2023-04-24T12:33:14.627Z,63.23
2023-04-24T12:35:44.248Z,63.63
2023-04-24T12:38:13.876Z,63.28
2023-04-24T12:40:42.389Z,63.21
2023-04-24T12:43:16.152Z,63.06
2023-04-24T12:45:46.427Z,63.48
2023-04-24T12:48:15.198Z,63.53
2023-04-24T12:50:46.440Z,63.15
2023-04-24T12:53:16.404Z,63.10
2023-04-24T12:55:45.520Z,62.99
2023-04-24T12:58:18.966Z,62.79
2023-04-24T13:00:47.772Z,62.52
2023-04-24T13:03:16.815Z,62.29
2023-04-24T13:05:46.475Z,62.80
2023-04-24T13:08:15.113Z,62.81
2023-04-24T13:10:44.726Z,63.06
2023-04-24T13:13:15.437Z,62.61
2023-04-24T13:15:44.020Z,62.92
2023-04-24T13:18:12.837Z,63.25
2023-04-24T13:20:42.107Z,63.19
2023-04-24T13:23:11.463Z,63.50
2023-04-24T13:25:40.293Z,63.60
2023-04-24T13:28:08.321Z,63.46
2023-04-24T13:30:37.679Z,63.51
2023-04-24T13:33:06.223Z,63.27
2023-04-24T13:35:34.428Z,63.46
2023-04-24T13:38:07.386Z,63.91
2023-04-24T13:40:39.430Z,63.74
2023-04-24T13:43:08.672Z,63.72
2023-04-24T13:45:36.915Z,63.51
2023-04-24T13:48:05.242Z,63.66
2023-04-24T13:50:33.736Z,63.27
2023-04-24T13:53:03.013Z,63.38
2023-04-24T13:55:32.004Z,63.03
2023-04-24T13:58:02.368Z,63.24
2023-04-24T14:00:30.507Z,62.94
2023-04-24T14:02:58.603Z,63.19
2023-04-24T14:05:26.719Z,63.05
2023-04-24T14:07:54.930Z,62.50
2023-04-24T14:10:23.180Z,62.39
2023-04-24T14:12:51.092Z,62.44
2023-04-24T14:15:20.623Z,62.28
2023-04-24T14:17:49.661Z,62.69
2023-04-24T14:20:18.032Z,62.88
2023-04-24T14:22:46.705Z,63.05
2023-04-24T14:25:16.369Z,62.90
2023-04-24T14:27:44.521Z,62.91
2023-04-24T14:30:13.729Z,63.02
2023-04-24T14:32:44.375Z,62.79
2023-04-24T14:35:13.109Z,62.96
2023-04-24T14:37:42.283Z,62.85
2023-04-24T14:40:26.681Z,62.62
2023-04-24T14:42:59.326Z,62.46
2023-04-24T14:45:27.593Z,62.20
2023-04-24T14:47:57.654Z,62.02
2023-04-24T14:50:28.957Z,61.65
2023-04-24T14:52:59.474Z,61.52
2023-04-24T14:55:27.959Z,61.03
2023-04-24T14:57:55.936Z,61.13
2023-04-24T15:00:25.062Z,61.31
2023-04-24T15:02:56.491Z,61.53
2023-04-24T15:05:25.834Z,61.60
2023-04-24T15:07:54.663Z,62.03
2023-04-24T15:10:24.015Z,61.54
2023-04-24T15:12:52.100Z,61.10
2023-04-24T15:15:20.252Z,60.93
2023-04-24T15:17:50.816Z,60.99
2023-04-24T15:20:20.305Z,60.66
2023-04-24T15:22:49.416Z,60.36
2023-04-24T15:25:17.948Z,60.05
2023-04-24T15:27:47.344Z,60.15
2023-04-24T15:30:15.644Z,60.06
2023-04-24T15:32:43.756Z,59.51
2023-04-24T15:35:14.143Z,58.78
2023-04-24T15:37:43.965Z,58.70
2023-04-24T15:40:14.397Z,58.72
2023-04-24T15:42:42.928Z,58.45
2023-04-24T15:45:15.811Z,58.13
2023-04-24T15:47:44.285Z,58.30
2023-04-24T15:50:14.337Z,58.21
2023-04-24T15:52:44.696Z,59.02
2023-04-24T15:55:12.819Z,59.17
2023-04-24T15:57:40.964Z,59.78
2023-04-24T16:00:11.472Z,57.17
2023-04-24T16:02:39.636Z,56.79
2023-04-24T16:05:09.110Z,55.16
2023-04-24T16:07:38.574Z,54.92
2023-04-24T16:10:08.977Z,53.83
2023-04-24T16:12:37.173Z,52.95
2023-04-24T16:15:07.596Z,52.25
2023-04-24T16:17:38.159Z,52.67
2023-04-24T16:20:08.775Z,53.21
2023-04-24T16:22:36.904Z,53.95
2023-04-24T16:25:08.409Z,54.78
2023-04-24T16:27:37.511Z,54.68
2023-04-24T16:30:07.909Z,54.68
2023-04-24T16:32:36.234Z,53.79
2023-04-24T16:35:04.187Z,54.82
2023-04-24T16:37:32.318Z,53.24
2023-04-24T16:40:00.266Z,53.34
2023-04-24T16:42:29.687Z,53.14
2023-04-24T16:44:57.717Z,52.82
2023-04-24T16:47:25.819Z,52.14
2023-04-24T16:49:54.135Z,51.71
2023-04-24T16:52:22.147Z,51.39
2023-04-24T16:54:50.153Z,50.63
2023-04-24T16:57:18.052Z,51.00
2023-04-24T16:59:47.993Z,51.34
2023-04-24T17:02:16.016Z,50.37
2023-04-24T17:04:44.026Z,51.17
2023-04-24T17:07:12.337Z,50.40
2023-04-24T17:09:40.324Z,50.25
2023-04-24T17:12:08.418Z,50.63
2023-04-24T17:14:36.434Z,50.33
2023-04-24T17:17:05.892Z,50.55
2023-04-24T17:19:35.709Z,50.96
2023-04-24T17:22:06.095Z,51.26
2023-04-24T17:24:34.528Z,52.55
2023-04-24T17:27:12.111Z,52.88
2023-04-24T17:29:43.134Z,53.43
2023-04-24T17:32:19.377Z,52.46
2023-04-24T17:34:49.146Z,51.83
2023-04-24T17:37:19.857Z,51.92
2023-04-24T17:39:48.570Z,52.11
2023-04-24T17:42:16.522Z,52.37
2023-04-24T17:44:45.444Z,52.71
2023-04-24T17:47:14.834Z,52.87
2023-04-24T17:49:43.618Z,52.80
2023-04-24T17:52:12.818Z,52.66
2023-04-24T17:54:40.977Z,53.14
2023-04-24T17:57:08.956Z,52.76
2023-04-24T17:59:37.029Z,53.01
2023-04-24T18:02:04.941Z,53.43
2023-04-24T18:04:34.574Z,53.48
2023-04-24T18:07:02.968Z,53.70
2023-04-24T18:09:30.941Z,53.48
2023-04-24T18:11:59.107Z,53.17
2023-04-24T18:14:28.403Z,52.61
2023-04-24T18:16:59.514Z,52.70
2023-04-24T18:19:27.619Z,52.30
2023-04-24T18:21:57.401Z,52.57
2023-04-24T18:24:25.741Z,52.64
2023-04-24T18:26:54.193Z,52.38
2023-04-24T18:29:22.267Z,52.50
2023-04-24T18:31:53.722Z,52.59
2023-04-24T18:34:21.786Z,52.07
2023-04-24T18:36:49.985Z,51.83
2023-04-24T18:39:23.008Z,51.89
2023-04-24T18:41:52.187Z,51.76
2023-04-24T18:44:20.151Z,52.09
2023-04-24T18:46:48.295Z,52.12
2023-04-24T18:49:16.215Z,51.93
2023-04-24T18:51:53.687Z,52.09
2023-04-24T18:54:23.946Z,52.21
2023-04-24T18:56:52.556Z,52.21
2023-04-24T18:59:20.830Z,52.49
2023-04-24T19:01:48.997Z,52.58
2023-04-24T19:04:18.170Z,52.32
2023-04-24T19:06:46.182Z,52.52
2023-04-24T19:09:14.206Z,52.51
2023-04-24T19:11:44.866Z,52.71
2023-04-24T19:14:13.664Z,52.44
2023-04-24T19:16:41.775Z,52.49
2023-04-24T19:19:09.990Z,52.58
2023-04-24T19:21:38.025Z,52.88
2023-04-24T19:24:06.312Z,53.10
2023-04-24T19:26:34.400Z,52.82
2023-04-24T19:29:04.748Z,52.89
2023-04-24T19:31:32.990Z,52.94
2023-04-24T19:34:03.264Z,53.05
2023-04-24T19:36:31.339Z,53.10
2023-04-24T19:38:59.384Z,53.07
2023-04-24T19:41:30.744Z,53.37
2023-04-24T19:43:58.734Z,53.69
2023-04-24T19:46:28.446Z,53.65
2023-04-24T19:48:56.651Z,53.25
2023-04-24T19:51:24.651Z,53.48
2023-04-24T19:53:55.227Z,53.25
2023-04-24T19:56:23.242Z,53.60
2023-04-24T19:58:51.329Z,53.45
2023-04-24T20:01:19.751Z,53.43
2023-04-24T20:03:49.476Z,53.38
2023-04-24T20:06:17.749Z,53.74
2023-04-24T20:08:45.839Z,53.64
2023-04-24T20:11:15.088Z,53.85
2023-04-24T20:13:43.178Z,54.00
2023-04-24T20:16:11.544Z,54.30
2023-04-24T20:18:39.847Z,54.15
2023-04-24T20:21:09.508Z,54.39
2023-04-24T20:23:37.493Z,54.48
2023-04-24T20:26:05.421Z,54.24
2023-04-24T20:28:33.497Z,54.64
2023-04-24T20:31:01.475Z,54.20
2023-04-24T20:33:30.704Z,54.40
2023-04-24T20:35:58.724Z,54.01
2023-04-24T20:38:28.816Z,53.90
2023-04-24T20:40:58.205Z,54.04
2023-04-24T20:43:28.894Z,54.57
2023-04-24T20:45:57.910Z,54.24
2023-04-24T20:48:28.133Z,54.35
2023-04-24T20:50:56.319Z,54.34
2023-04-24T20:53:24.317Z,54.59
2023-04-24T20:55:53.889Z,54.79
2023-04-24T20:58:22.279Z,54.26
2023-04-24T21:00:50.456Z,54.50
2023-04-24T21:03:18.866Z,54.66
2023-04-24T21:05:47.053Z,54.29
2023-04-24T21:08:15.166Z,54.60
2023-04-24T21:10:43.210Z,54.17
2023-04-24T21:13:15.182Z,54.44
2023-04-24T21:15:43.114Z,54.57
2023-04-24T21:18:12.645Z,54.13
2023-04-24T21:20:40.664Z,54.38
2023-04-24T21:23:09.045Z,54.30
2023-04-24T21:25:37.269Z,54.50
2023-04-24T21:28:05.724Z,54.38
2023-04-24T21:30:35.274Z,54.16
2023-04-24T21:33:03.529Z,54.22
2023-04-24T21:35:31.991Z,54.49
2023-04-24T21:37:59.986Z,54.39
2023-04-24T21:40:29.435Z,54.64
2023-04-24T21:42:57.459Z,54.76
2023-04-24T21:45:25.408Z,54.78
2023-04-24T21:47:54.970Z,54.88
2023-04-24T21:50:23.012Z,54.97
2023-04-24T21:52:51.011Z,54.78
2023-04-24T21:55:19.189Z,54.88
2023-04-24T21:57:47.153Z,54.56
2023-04-24T22:00:15.454Z,54.61
2023-04-24T22:02:43.865Z,54.62
2023-04-24T22:05:15.853Z,54.61
2023-04-24T22:07:46.695Z,54.59
2023-04-24T22:10:16.592Z,54.49
2023-04-24T22:12:44.838Z,54.24
2023-04-24T22:15:12.982Z,54.53
2023-04-24T22:17:40.940Z,54.23
2023-04-24T22:20:09.568Z,53.96
2023-04-24T22:22:39.705Z,54.72
2023-04-24T22:25:09.204Z,54.68
2023-04-24T22:27:37.339Z,54.77
2023-04-24T22:30:06.168Z,54.85
2023-04-24T22:32:34.495Z,54.69
2023-04-24T22:35:02.479Z,54.74
2023-04-24T22:37:30.780Z,55.03
2023-04-24T22:40:01.410Z,55.08
2023-04-24T22:42:30.133Z,54.90
2023-04-24T22:44:58.097Z,55.01
2023-04-24T22:47:26.163Z,55.08
2023-04-24T22:49:54.247Z,55.07
2023-04-24T22:52:22.518Z,55.13
2023-04-24T22:54:50.748Z,55.12
2023-04-24T22:57:20.164Z,54.73
2023-04-24T22:59:48.314Z,54.88
2023-04-24T23:02:16.889Z,55.00
2023-04-24T23:04:45.031Z,54.90
2023-04-24T23:07:13.000Z,54.85
2023-04-24T23:09:40.957Z,54.51
2023-04-24T23:12:08.890Z,54.58
2023-04-24T23:14:38.293Z,54.74
2023-04-24T23:17:06.360Z,55.14
2023-04-24T23:19:34.466Z,54.87
2023-04-24T23:22:02.543Z,55.14
2023-04-24T23:24:30.828Z,54.90
2023-04-24T23:26:58.905Z,55.35
2023-04-24T23:29:26.930Z,55.35
2023-04-24T23:31:56.953Z,55.17
2023-04-24T23:34:25.238Z,55.26
2023-04-24T23:36:53.351Z,55.57
2023-04-24T23:39:22.932Z,55.36
2023-04-24T23:41:53.577Z,55.44
2023-04-24T23:44:21.612Z,55.15
2023-04-24T23:46:49.919Z,55.67
2023-04-24T23:49:19.427Z,55.69
2023-04-24T23:51:47.922Z,55.31
2023-04-24T23:54:15.862Z,55.35
2023-04-24T23:56:44.629Z,55.86
2023-04-24T23:59:12.535Z,55.41
